EZY365G EGCC-EGAC
Flight info
| Callsign | EZY365G |
|---|---|
| Flight time | 0h 34m |
| Altitude | 20000 |
| Route | ASMIM L975 WAL M146 ERDUV Z198 MASOP M148 MAGEE |
| Aircraft | A320/M-SDE2E3FGHIJ1RWXYZ/LB1 |
Departure
| Time | 2026-04-25 09:18 |
|---|---|
| Airport | Manchester Airport (EGCC) |
Arrival
| Time | 2026-04-25 09:52 |
|---|---|
| Airport | George Best Belfast City Airport (EGAC) |
| Time | Latitude | Longitude | Altitude | Speed | Heading |
|---|---|---|---|---|---|
| 2026-04-25 08:36 | 53.36920 | -2.28743 | 255 ft | 0 kts | 135° |
| 2026-04-25 09:05 | 53.36936 | -2.28771 | 255 ft | 3 kts | 135° |
| 2026-04-25 09:05 | 53.36949 | -2.28790 | 255 ft | 4 kts | 187° |
| 2026-04-25 09:05 | 53.36967 | -2.28773 | 255 ft | 2 kts | 225° |
| 2026-04-25 09:06 | 53.36957 | -2.28790 | 255 ft | 4 kts | 225° |
| 2026-04-25 09:06 | 53.36953 | -2.28796 | 255 ft | 0 kts | 225° |
| 2026-04-25 09:09 | 53.36947 | -2.28806 | 255 ft | 5 kts | 223° |
| 2026-04-25 09:09 | 53.36906 | -2.28872 | 255 ft | 8 kts | 224° |
| 2026-04-25 09:09 | 53.36866 | -2.28938 | 255 ft | 8 kts | 225° |
| 2026-04-25 09:10 | 53.36830 | -2.28995 | 255 ft | 7 kts | 220° |
| 2026-04-25 09:10 | 53.36794 | -2.29028 | 255 ft | 6 kts | 199° |
| 2026-04-25 09:10 | 53.36754 | -2.29037 | 255 ft | 6 kts | 174° |
| 2026-04-25 09:10 | 53.36713 | -2.28984 | 255 ft | 10 kts | 130° |
| 2026-04-25 09:11 | 53.36590 | -2.28807 | 255 ft | 12 kts | 120° |
| 2026-04-25 09:11 | 53.36546 | -2.28703 | 255 ft | 10 kts | 132° |
| 2026-04-25 09:11 | 53.36502 | -2.28625 | 255 ft | 9 kts | 135° |
| 2026-04-25 09:12 | 53.36460 | -2.28554 | 255 ft | 9 kts | 134° |
| 2026-04-25 09:12 | 53.36402 | -2.28482 | 255 ft | 11 kts | 156° |
| 2026-04-25 09:12 | 53.36335 | -2.28444 | 255 ft | 9 kts | 151° |
| 2026-04-25 09:12 | 53.36291 | -2.28380 | 255 ft | 9 kts | 135° |
| 2026-04-25 09:13 | 53.36214 | -2.28249 | 255 ft | 22 kts | 135° |
| 2026-04-25 09:13 | 53.36107 | -2.28070 | 255 ft | 23 kts | 135° |
| 2026-04-25 09:13 | 53.36005 | -2.27916 | 255 ft | 18 kts | 140° |
| 2026-04-25 09:13 | 53.35918 | -2.27847 | 255 ft | 14 kts | 173° |
| 2026-04-25 09:14 | 53.35825 | -2.27857 | 251 ft | 13 kts | 187° |
| 2026-04-25 09:14 | 53.35724 | -2.27879 | 246 ft | 17 kts | 186° |
| 2026-04-25 09:14 | 53.35621 | -2.27918 | 240 ft | 14 kts | 217° |
| 2026-04-25 09:14 | 53.35546 | -2.28062 | 236 ft | 18 kts | 225° |
| 2026-04-25 09:15 | 53.35430 | -2.28157 | 238 ft | 17 kts | 188° |
| 2026-04-25 09:15 | 53.35307 | -2.28210 | 234 ft | 20 kts | 206° |
| 2026-04-25 09:15 | 53.35196 | -2.28373 | 230 ft | 23 kts | 231° |
| 2026-04-25 09:15 | 53.35089 | -2.28596 | 229 ft | 25 kts | 231° |
| 2026-04-25 09:16 | 53.34970 | -2.28822 | 226 ft | 27 kts | 226° |
| 2026-04-25 09:16 | 53.34834 | -2.29059 | 223 ft | 28 kts | 228° |
| 2026-04-25 09:16 | 53.34734 | -2.29259 | 212 ft | 16 kts | 229° |
| 2026-04-25 09:16 | 53.34674 | -2.29331 | 214 ft | 16 kts | 198° |
| 2026-04-25 09:17 | 53.34545 | -2.29209 | 216 ft | 6 kts | 51° |
| 2026-04-25 09:17 | 53.34564 | -2.29172 | 218 ft | 4 kts | 51° |
| 2026-04-25 09:17 | 53.34666 | -2.28959 | 219 ft | 59 kts | 51° |
| 2026-04-25 09:18 | 53.35067 | -2.28128 | 234 ft | 122 kts | 51° |
| 2026-04-25 09:18 | 53.35699 | -2.26796 | 306 ft | 165 kts | 52° |
| 2026-04-25 09:18 | 53.36414 | -2.25285 | 967 ft | 166 kts | 51° |
| 2026-04-25 09:18 | 53.37147 | -2.23760 | 1661 ft | 171 kts | 51° |
| 2026-04-25 09:19 | 53.37666 | -2.22696 | 1925 ft | 185 kts | 51° |
| 2026-04-25 09:19 | 53.38652 | -2.21234 | 2242 ft | 206 kts | 22° |
| 2026-04-25 09:19 | 53.40053 | -2.20808 | 2536 ft | 230 kts | 355° |
| 2026-04-25 09:19 | 53.41599 | -2.21826 | 2980 ft | 254 kts | 318° |
| 2026-04-25 09:20 | 53.42580 | -2.24289 | 3749 ft | 262 kts | 294° |
| 2026-04-25 09:20 | 53.43278 | -2.27145 | 4674 ft | 266 kts | 290° |
| 2026-04-25 09:20 | 53.43907 | -2.30091 | 5637 ft | 269 kts | 289° |
| 2026-04-25 09:20 | 53.44521 | -2.33076 | 6589 ft | 272 kts | 289° |
| 2026-04-25 09:21 | 53.45286 | -2.35984 | 7474 ft | 274 kts | 295° |
| 2026-04-25 09:21 | 53.46111 | -2.38811 | 8354 ft | 277 kts | 294° |
| 2026-04-25 09:21 | 53.46703 | -2.41900 | 9227 ft | 280 kts | 280° |
| 2026-04-25 09:21 | 53.46797 | -2.45171 | 10103 ft | 284 kts | 265° |
| 2026-04-25 09:22 | 53.46475 | -2.48444 | 10656 ft | 299 kts | 260° |
| 2026-04-25 09:22 | 53.46079 | -2.52018 | 10989 ft | 319 kts | 260° |
| 2026-04-25 09:22 | 53.45670 | -2.55669 | 11645 ft | 326 kts | 259° |
| 2026-04-25 09:22 | 53.45258 | -2.59356 | 12402 ft | 330 kts | 259° |
| 2026-04-25 09:23 | 53.44835 | -2.63171 | 13164 ft | 335 kts | 259° |
| 2026-04-25 09:23 | 53.44411 | -2.67018 | 13916 ft | 339 kts | 259° |
| 2026-04-25 09:23 | 53.43980 | -2.70930 | 14588 ft | 342 kts | 259° |
| 2026-04-25 09:23 | 53.43545 | -2.74876 | 15246 ft | 345 kts | 259° |
| 2026-04-25 09:24 | 53.43104 | -2.78850 | 15908 ft | 349 kts | 259° |
| 2026-04-25 09:24 | 53.42654 | -2.82859 | 16565 ft | 352 kts | 259° |
| 2026-04-25 09:24 | 53.42201 | -2.86899 | 17226 ft | 355 kts | 259° |
| 2026-04-25 09:24 | 53.41743 | -2.90994 | 17891 ft | 358 kts | 259° |
| 2026-04-25 09:25 | 53.41278 | -2.95129 | 18535 ft | 362 kts | 258° |
| 2026-04-25 09:25 | 53.40807 | -2.99295 | 19095 ft | 365 kts | 258° |
| 2026-04-25 09:25 | 53.40343 | -3.03416 | 19647 ft | 368 kts | 259° |
| 2026-04-25 09:25 | 53.40108 | -3.07675 | 20082 ft | 372 kts | 270° |
| 2026-04-25 09:26 | 53.40449 | -3.11993 | 20200 ft | 375 kts | 283° |
| 2026-04-25 09:26 | 53.41400 | -3.16069 | 20211 ft | 377 kts | 297° |
| 2026-04-25 09:26 | 53.42895 | -3.19686 | 20224 ft | 380 kts | 310° |
| 2026-04-25 09:26 | 53.44715 | -3.22828 | 20222 ft | 381 kts | 313° |
| 2026-04-25 09:27 | 53.46580 | -3.25989 | 20223 ft | 381 kts | 313° |
| 2026-04-25 09:27 | 53.48439 | -3.29153 | 20224 ft | 381 kts | 313° |
| 2026-04-25 09:27 | 53.50293 | -3.32322 | 20218 ft | 381 kts | 313° |
| 2026-04-25 09:27 | 53.52149 | -3.35507 | 20218 ft | 381 kts | 313° |
| 2026-04-25 09:28 | 53.54021 | -3.38731 | 20213 ft | 381 kts | 312° |
| 2026-04-25 09:28 | 53.55873 | -3.41921 | 20214 ft | 381 kts | 312° |
| 2026-04-25 09:28 | 53.57697 | -3.45139 | 20220 ft | 380 kts | 308° |
| 2026-04-25 09:28 | 53.59273 | -3.48704 | 20217 ft | 379 kts | 303° |
| 2026-04-25 09:29 | 53.60794 | -3.52329 | 20219 ft | 379 kts | 303° |
| 2026-04-25 09:29 | 53.62316 | -3.55948 | 20217 ft | 379 kts | 303° |
| 2026-04-25 09:29 | 53.63822 | -3.59530 | 20214 ft | 379 kts | 303° |
| 2026-04-25 09:29 | 53.65345 | -3.63151 | 20214 ft | 379 kts | 303° |
| 2026-04-25 09:30 | 53.66887 | -3.66819 | 20210 ft | 378 kts | 303° |
| 2026-04-25 09:30 | 53.68381 | -3.70385 | 20223 ft | 377 kts | 303° |
| 2026-04-25 09:30 | 53.69900 | -3.74016 | 20213 ft | 379 kts | 303° |
| 2026-04-25 09:30 | 53.71420 | -3.77662 | 20210 ft | 380 kts | 303° |
| 2026-04-25 09:31 | 53.72958 | -3.81353 | 20214 ft | 380 kts | 303° |
| 2026-04-25 09:31 | 53.74459 | -3.84957 | 20213 ft | 380 kts | 303° |
| 2026-04-25 09:31 | 53.75975 | -3.88609 | 20214 ft | 380 kts | 303° |
| 2026-04-25 09:31 | 53.77492 | -3.92273 | 20211 ft | 380 kts | 303° |
| 2026-04-25 09:32 | 53.79001 | -3.95926 | 20209 ft | 380 kts | 303° |
| 2026-04-25 09:32 | 53.80513 | -3.99588 | 20210 ft | 380 kts | 303° |
| 2026-04-25 09:32 | 53.82025 | -4.03259 | 20211 ft | 380 kts | 303° |
| 2026-04-25 09:32 | 53.83536 | -4.06930 | 20215 ft | 380 kts | 303° |
| 2026-04-25 09:33 | 53.85053 | -4.10620 | 20205 ft | 380 kts | 303° |
| 2026-04-25 09:33 | 53.86726 | -4.14075 | 20210 ft | 382 kts | 313° |
| 2026-04-25 09:33 | 53.88766 | -4.16968 | 20204 ft | 384 kts | 324° |
| 2026-04-25 09:33 | 53.91108 | -4.19173 | 20204 ft | 386 kts | 335° |
| 2026-04-25 09:34 | 53.93605 | -4.20846 | 20211 ft | 387 kts | 338° |
| 2026-04-25 09:34 | 53.96112 | -4.22505 | 20210 ft | 387 kts | 338° |
| 2026-04-25 09:34 | 53.98625 | -4.24165 | 20206 ft | 388 kts | 338° |
| 2026-04-25 09:34 | 54.01149 | -4.25829 | 20205 ft | 388 kts | 338° |
| 2026-04-25 09:35 | 54.03597 | -4.27443 | 20205 ft | 388 kts | 338° |
| 2026-04-25 09:35 | 54.06117 | -4.29111 | 20200 ft | 388 kts | 337° |
| 2026-04-25 09:35 | 54.08630 | -4.30783 | 20201 ft | 388 kts | 337° |
| 2026-04-25 09:35 | 54.11136 | -4.32452 | 20197 ft | 388 kts | 337° |
| 2026-04-25 09:36 | 54.13571 | -4.34409 | 20197 ft | 386 kts | 328° |
| 2026-04-25 09:36 | 54.15751 | -4.37077 | 20218 ft | 384 kts | 317° |
| 2026-04-25 09:36 | 54.17591 | -4.40339 | 20220 ft | 382 kts | 307° |
| 2026-04-25 09:36 | 54.19141 | -4.44030 | 20214 ft | 383 kts | 303° |
| 2026-04-25 09:37 | 54.20662 | -4.47747 | 20214 ft | 383 kts | 303° |
| 2026-04-25 09:37 | 54.22194 | -4.51496 | 20224 ft | 383 kts | 303° |
| 2026-04-25 09:37 | 54.23698 | -4.55165 | 20196 ft | 370 kts | 303° |
| 2026-04-25 09:37 | 54.25167 | -4.58740 | 19790 ft | 366 kts | 303° |
| 2026-04-25 09:38 | 54.26564 | -4.62152 | 19403 ft | 364 kts | 303° |
| 2026-04-25 09:38 | 54.28038 | -4.65769 | 18975 ft | 361 kts | 303° |
| 2026-04-25 09:38 | 54.29466 | -4.69280 | 18558 ft | 359 kts | 303° |
| 2026-04-25 09:38 | 54.30885 | -4.72777 | 18112 ft | 356 kts | 303° |
| 2026-04-25 09:39 | 54.32288 | -4.76243 | 17656 ft | 354 kts | 303° |
| 2026-04-25 09:39 | 54.33687 | -4.79701 | 17217 ft | 351 kts | 303° |
| 2026-04-25 09:39 | 54.35074 | -4.83132 | 16780 ft | 349 kts | 303° |
| 2026-04-25 09:40 | 54.37813 | -4.89931 | 15954 ft | 345 kts | 303° |
| 2026-04-25 09:40 | 54.39173 | -4.93314 | 15530 ft | 343 kts | 303° |
| 2026-04-25 09:40 | 54.40521 | -4.96669 | 15124 ft | 341 kts | 303° |
| 2026-04-25 09:40 | 54.41862 | -5.00013 | 14569 ft | 337 kts | 303° |
| 2026-04-25 09:41 | 54.43187 | -5.03317 | 13840 ft | 335 kts | 303° |
| 2026-04-25 09:41 | 54.44496 | -5.06573 | 13070 ft | 332 kts | 303° |
| 2026-04-25 09:41 | 54.45810 | -5.09822 | 12359 ft | 327 kts | 303° |
| 2026-04-25 09:41 | 54.47090 | -5.12973 | 11930 ft | 315 kts | 303° |
| 2026-04-25 09:42 | 54.48318 | -5.15998 | 11544 ft | 303 kts | 303° |
| 2026-04-25 09:42 | 54.49507 | -5.18915 | 11161 ft | 292 kts | 303° |
| 2026-04-25 09:42 | 54.50729 | -5.21697 | 10769 ft | 294 kts | 311° |
| 2026-04-25 09:42 | 54.52261 | -5.24050 | 10385 ft | 295 kts | 321° |
| 2026-04-25 09:43 | 54.53873 | -5.26221 | 9970 ft | 296 kts | 321° |
| 2026-04-25 09:43 | 54.55502 | -5.28425 | 9540 ft | 296 kts | 321° |
| 2026-04-25 09:43 | 54.57122 | -5.30623 | 9137 ft | 296 kts | 321° |
| 2026-04-25 09:43 | 54.58732 | -5.32814 | 8744 ft | 294 kts | 321° |
| 2026-04-25 09:44 | 54.60334 | -5.34998 | 8349 ft | 293 kts | 321° |
| 2026-04-25 09:44 | 54.61931 | -5.37178 | 7916 ft | 292 kts | 321° |
| 2026-04-25 09:44 | 54.63509 | -5.39335 | 7626 ft | 287 kts | 321° |
| 2026-04-25 09:44 | 54.65016 | -5.41396 | 7167 ft | 284 kts | 321° |
| 2026-04-25 09:45 | 54.66595 | -5.43558 | 6541 ft | 280 kts | 321° |
| 2026-04-25 09:45 | 54.68097 | -5.45614 | 6051 ft | 270 kts | 321° |
| 2026-04-25 09:45 | 54.69523 | -5.47569 | 5461 ft | 267 kts | 321° |
| 2026-04-25 09:45 | 54.70969 | -5.49550 | 5020 ft | 258 kts | 320° |
| 2026-04-25 09:46 | 54.72323 | -5.51411 | 4598 ft | 249 kts | 320° |
| 2026-04-25 09:46 | 54.73700 | -5.53309 | 4176 ft | 251 kts | 320° |
| 2026-04-25 09:46 | 54.75076 | -5.55210 | 3884 ft | 246 kts | 320° |
| 2026-04-25 09:46 | 54.76378 | -5.57003 | 3824 ft | 233 kts | 320° |
| 2026-04-25 09:47 | 54.77578 | -5.58793 | 3734 ft | 222 kts | 309° |
| 2026-04-25 09:47 | 54.78310 | -5.61051 | 3644 ft | 211 kts | 284° |
| 2026-04-25 09:47 | 54.78467 | -5.63458 | 3583 ft | 194 kts | 263° |
| 2026-04-25 09:47 | 54.78138 | -5.65686 | 3472 ft | 195 kts | 248° |
| 2026-04-25 09:48 | 54.77554 | -5.67809 | 3372 ft | 195 kts | 233° |
| 2026-04-25 09:48 | 54.76594 | -5.69483 | 3295 ft | 194 kts | 214° |
| 2026-04-25 09:48 | 54.75499 | -5.70795 | 3143 ft | 194 kts | 214° |
| 2026-04-25 09:48 | 54.74394 | -5.72130 | 2901 ft | 191 kts | 214° |
| 2026-04-25 09:49 | 54.73319 | -5.73427 | 2653 ft | 186 kts | 214° |
| 2026-04-25 09:49 | 54.72285 | -5.74673 | 2415 ft | 181 kts | 214° |
| 2026-04-25 09:49 | 54.71261 | -5.75906 | 2174 ft | 177 kts | 214° |
| 2026-04-25 09:49 | 54.70258 | -5.77112 | 1937 ft | 174 kts | 214° |
| 2026-04-25 09:50 | 54.69288 | -5.78280 | 1713 ft | 164 kts | 214° |
| 2026-04-25 09:50 | 54.68379 | -5.79373 | 1482 ft | 154 kts | 214° |
| 2026-04-25 09:50 | 54.67542 | -5.80379 | 1289 ft | 143 kts | 213° |
| 2026-04-25 09:50 | 54.66736 | -5.81345 | 1082 ft | 139 kts | 213° |
| 2026-04-25 09:51 | 54.65944 | -5.82297 | 892 ft | 139 kts | 214° |
| 2026-04-25 09:51 | 54.65151 | -5.83246 | 688 ft | 138 kts | 214° |
| 2026-04-25 09:51 | 54.64366 | -5.84197 | 483 ft | 138 kts | 215° |
| 2026-04-25 09:51 | 54.63579 | -5.85145 | 308 ft | 138 kts | 214° |
| 2026-04-25 09:52 | 54.62788 | -5.86083 | 126 ft | 137 kts | 214° |
| 2026-04-25 09:52 | 54.62018 | -5.87007 | 27 ft | 127 kts | 214° |
| 2026-04-25 09:52 | 54.61476 | -5.87647 | 20 ft | 44 kts | 214° |
| 2026-04-25 09:52 | 54.61347 | -5.87790 | 21 ft | 9 kts | 205° |
| 2026-04-25 09:53 | 54.61307 | -5.87786 | 21 ft | 5 kts | 147° |
| 2026-04-25 09:53 | 54.61290 | -5.87748 | 21 ft | 3 kts | 124° |
| 2026-04-25 09:53 | 54.61284 | -5.87732 | 22 ft | 0 kts | 124° |
| 2026-04-25 09:53 | 54.61263 | -5.87677 | 23 ft | 12 kts | 123° |
| 2026-04-25 09:54 | 54.61280 | -5.87569 | 23 ft | 9 kts | 44° |
| 2026-04-25 09:54 | 54.61328 | -5.87511 | 24 ft | 8 kts | 32° |
| 2026-04-25 09:54 | 54.61370 | -5.87461 | 23 ft | 7 kts | 38° |
| 2026-04-25 09:54 | 54.61400 | -5.87408 | 23 ft | 6 kts | 53° |
| 2026-04-25 09:55 | 54.61423 | -5.87360 | 23 ft | 7 kts | 43° |
| 2026-04-25 09:55 | 54.61480 | -5.87290 | 23 ft | 10 kts | 35° |
| 2026-04-25 09:55 | 54.61531 | -5.87225 | 23 ft | 6 kts | 37° |
| 2026-04-25 09:55 | 54.61546 | -5.87192 | 23 ft | 3 kts | 70° |
| 2026-04-25 09:56 | 54.61543 | -5.87178 | 23 ft | 0 kts | 127° |
| 2026-04-25 09:56 | 54.61537 | -5.87175 | 23 ft | 3 kts | 149° |
| 2026-04-25 09:56 | 54.61524 | -5.87162 | 23 ft | 2 kts | 155° |
| 2026-04-25 09:56 | 54.61514 | -5.87155 | 23 ft | 1 kts | 156° |
| 2026-04-25 09:57 | 54.61511 | -5.87152 | 23 ft | 0 kts | 156° |
| 2026-04-25 09:57 | 54.61510 | -5.87152 | 23 ft | 2 kts | 156° |
| 2026-04-25 09:57 | 54.61500 | -5.87144 | 25 ft | 1 kts | 156° |
| 2026-04-25 09:57 | 54.61499 | -5.87144 | 25 ft | 0 kts | 156° |